createdAt,value
2019-02-17T00:28:15.214Z,2.82
2019-02-17T00:28:15.775Z,2.87
2019-02-17T00:28:16.378Z,2.82
2019-02-17T00:28:16.972Z,2.81
2019-02-17T00:28:17.575Z,2.79
2019-02-17T00:28:18.173Z,2.76
2019-02-17T00:28:18.771Z,2.85
2019-02-17T00:28:19.370Z,2.84
2019-02-17T00:28:19.970Z,2.84
2019-02-17T00:28:20.570Z,2.77
2019-02-17T00:28:21.175Z,2.82
2019-02-17T00:28:21.769Z,2.91
2019-02-17T00:29:28.455Z,2.74
2019-02-17T00:29:29.031Z,2.81
2019-02-17T00:29:29.628Z,2.85
2019-02-17T00:29:30.230Z,2.87
2019-02-17T00:29:30.827Z,2.84
2019-02-17T00:30:44.335Z,2.82
2019-02-17T00:30:44.912Z,2.81
2019-02-17T00:30:45.508Z,2.84
2019-02-17T00:30:46.108Z,2.81
2019-02-17T00:30:46.707Z,2.84
2019-02-17T00:30:47.307Z,2.87
2019-02-17T00:30:47.907Z,2.82
2019-02-17T00:30:48.507Z,2.74
2019-02-17T00:31:43.525Z,2.84
2019-02-17T00:31:44.100Z,2.89
2019-02-17T00:31:44.702Z,2.81
2019-02-17T00:31:45.293Z,2.84
2019-02-17T00:31:45.893Z,2.82
2019-02-17T00:31:46.494Z,2.79
2019-02-17T00:32:40.460Z,2.84
2019-02-17T00:32:41.032Z,2.82
2019-02-17T00:32:41.635Z,2.88
2019-02-17T00:32:42.230Z,2.92
2019-02-17T00:32:42.834Z,2.94
2019-02-17T00:32:43.429Z,2.91
2019-02-17T00:32:44.030Z,2.79
2019-02-17T00:32:44.630Z,2.79
2019-02-17T00:33:38.121Z,2.87
2019-02-17T00:33:38.683Z,2.81
2019-02-17T00:33:39.283Z,2.92
2019-02-17T00:33:39.883Z,2.88
2019-02-17T00:33:40.484Z,2.79
2019-02-17T00:33:41.081Z,2.85
2019-02-17T00:33:41.682Z,2.79
2019-02-17T00:33:42.281Z,2.91
2019-02-17T00:34:35.765Z,2.94
2019-02-17T00:34:36.335Z,2.87
2019-02-17T00:34:36.935Z,2.84
2019-02-17T00:34:37.534Z,2.85
2019-02-17T00:34:38.133Z,2.79
2019-02-17T00:34:38.734Z,2.88
2019-02-17T00:34:39.334Z,2.81
2019-02-17T00:34:39.950Z,2.84
2019-02-17T00:35:34.947Z,2.89
2019-02-17T00:35:35.523Z,2.89
2019-02-17T00:35:36.125Z,2.82
2019-02-17T00:35:36.721Z,2.85
2019-02-17T00:35:37.321Z,2.85
2019-02-17T00:35:37.923Z,2.85
2019-02-17T00:36:33.421Z,2.79
2019-02-17T00:36:33.992Z,2.87
2019-02-17T00:36:34.593Z,2.85
2019-02-17T00:36:35.193Z,2.95
2019-02-17T00:36:35.793Z,2.79
2019-02-17T00:36:36.391Z,2.85
2019-02-17T00:37:47.973Z,2.91
2019-02-17T00:37:48.539Z,2.97
2019-02-17T00:37:49.138Z,2.91
2019-02-17T00:37:49.737Z,3.00
2019-02-17T00:37:50.337Z,2.98
2019-02-17T00:37:50.954Z,2.92
2019-02-17T00:37:51.536Z,2.95
2019-02-17T00:37:52.136Z,2.89
2019-02-17T00:37:52.737Z,2.91
2019-02-17T00:37:53.336Z,2.91
2019-02-17T00:37:53.937Z,3.02
2019-02-17T00:37:54.535Z,2.89
2019-02-17T00:38:49.519Z,2.92
2019-02-17T00:38:50.084Z,2.88
2019-02-17T00:38:50.684Z,2.97
2019-02-17T00:38:51.284Z,2.95
2019-02-17T00:38:51.883Z,2.98
2019-02-17T00:38:52.484Z,2.87
2019-02-17T00:39:46.553Z,2.98
2019-02-17T00:39:47.122Z,3.05
2019-02-17T00:39:47.722Z,2.98
2019-02-17T00:39:48.320Z,2.97
2019-02-17T00:39:48.921Z,2.91
2019-02-17T00:39:49.521Z,3.07
2019-02-17T00:39:50.123Z,3.02
2019-02-17T00:39:50.721Z,3.02
2019-02-17T00:40:49.219Z,3.09
2019-02-17T00:40:49.794Z,3.05
2019-02-17T00:40:50.445Z,2.95
2019-02-17T00:40:50.990Z,3.09
2019-02-17T00:40:51.590Z,3.09
2019-02-17T00:40:52.190Z,3.03
2019-02-17T00:40:52.792Z,2.98
2019-02-17T00:40:53.389Z,3.02
2019-02-17T00:40:53.988Z,3.03
2019-02-17T00:40:54.589Z,3.02
2019-02-17T00:40:55.191Z,3.13
2019-02-17T00:40:55.788Z,3.03
2019-02-17T00:40:56.387Z,3.02
2019-02-17T00:40:56.988Z,3.02
2019-02-17T00:40:57.590Z,3.05
2019-02-17T00:40:58.187Z,3.06
2019-02-17T04:43:54.397Z,2.69
2019-02-17T04:43:54.899Z,2.71
2019-02-17T04:43:55.495Z,2.74
2019-02-17T04:43:56.098Z,2.74
2019-02-17T04:43:56.701Z,2.73
2019-02-17T04:44:51.718Z,2.71
2019-02-17T04:44:52.293Z,2.76
2019-02-17T04:44:52.890Z,2.67
2019-02-17T04:44:53.495Z,2.76
2019-02-17T04:44:54.093Z,2.71
2019-02-17T04:44:54.690Z,2.70
2019-02-17T04:46:05.039Z,2.67
2019-02-17T04:46:05.612Z,2.69
2019-02-17T04:46:06.212Z,2.71
2019-02-17T04:46:06.826Z,2.69
2019-02-17T04:46:07.412Z,2.69
2019-02-17T04:46:08.011Z,2.70
2019-02-17T04:46:08.641Z,2.70
2019-02-17T04:46:09.299Z,2.71
2019-02-17T04:46:09.810Z,2.74
2019-02-17T04:46:10.408Z,2.69
2019-02-17T04:46:11.010Z,2.74
2019-02-17T04:46:11.607Z,2.73
2019-02-17T04:46:12.207Z,2.74
2019-02-17T04:46:12.807Z,2.73
2019-02-17T04:46:13.405Z,2.71
2019-02-17T04:46:14.008Z,2.73
2019-02-17T04:48:46.872Z,2.67
2019-02-17T04:48:47.397Z,2.66
2019-02-17T04:48:47.999Z,2.64
2019-02-17T04:48:48.597Z,2.67
2019-02-17T04:48:49.197Z,2.70
2019-02-17T04:48:49.797Z,2.73
2019-02-17T04:48:50.396Z,2.70
2019-02-17T04:48:51.001Z,2.69
2019-02-17T04:48:51.597Z,2.66
2019-02-17T04:48:52.206Z,2.63
2019-02-17T04:48:52.794Z,2.67
2019-02-17T04:48:53.394Z,2.71
2019-02-17T04:49:55.034Z,2.69
2019-02-17T04:49:56.541Z,2.64
2019-02-17T04:49:56.947Z,2.69
2019-02-17T04:49:57.521Z,2.69
2019-02-17T04:49:58.121Z,2.66
2019-02-17T04:49:58.727Z,2.66
2019-02-17T04:49:59.322Z,2.66
2019-02-17T04:49:59.920Z,2.70
2019-02-17T04:50:00.521Z,2.64
2019-02-17T04:50:01.124Z,2.66
2019-02-17T04:50:01.721Z,2.73
2019-02-17T04:51:21.259Z,2.63
2019-02-17T04:51:21.830Z,2.70
2019-02-17T04:51:22.431Z,2.63
2019-02-17T04:51:23.027Z,2.70
2019-02-17T04:51:23.628Z,2.66
2019-02-17T04:51:24.228Z,2.66
2019-02-17T04:51:24.826Z,2.64
2019-02-17T04:51:25.430Z,2.67
2019-02-17T04:51:26.027Z,2.66
2019-02-17T04:51:26.625Z,2.66
2019-02-17T04:51:27.270Z,2.66
2019-02-17T04:51:27.891Z,2.64
2019-02-17T04:51:28.465Z,2.64
2019-02-17T04:51:29.022Z,2.67
2019-02-17T04:51:29.621Z,2.63
2019-02-17T04:54:01.762Z,2.63
2019-02-17T04:54:02.265Z,2.69
2019-02-17T04:54:02.860Z,2.66
2019-02-17T04:54:03.458Z,2.66
2019-02-17T04:54:04.127Z,2.63
2019-02-17T04:54:04.692Z,2.66
2019-02-17T04:54:05.310Z,2.67
2019-02-17T04:54:05.858Z,2.66
2019-02-17T04:54:06.460Z,2.66
2019-02-17T04:54:07.058Z,2.66
2019-02-17T04:54:07.661Z,2.59
2019-02-17T04:54:08.258Z,2.64
2019-02-17T04:54:08.857Z,2.64
2019-02-17T04:54:09.457Z,2.69
2019-02-17T04:54:10.058Z,2.66
2019-02-17T04:55:11.043Z,2.67
2019-02-17T04:55:11.619Z,2.61
2019-02-17T04:55:12.215Z,2.70
2019-02-17T04:55:12.815Z,2.66
2019-02-17T04:55:13.414Z,2.64
2019-02-17T04:55:14.014Z,2.64
2019-02-17T04:55:14.616Z,2.66
2019-02-17T04:55:15.220Z,2.69
2019-02-17T04:55:15.851Z,2.64
2019-02-17T04:55:16.412Z,2.63
2019-02-17T04:55:17.010Z,2.63
2019-02-17T04:55:17.614Z,2.64
2019-02-17T04:56:11.153Z,2.67
2019-02-17T04:56:11.729Z,2.66
2019-02-17T04:56:12.326Z,2.69
2019-02-17T04:56:12.927Z,2.69
2019-02-17T04:56:13.561Z,2.63
2019-02-17T04:56:14.128Z,2.66
2019-02-17T04:56:14.726Z,2.63
2019-02-17T04:56:15.336Z,2.73
2019-02-17T04:57:11.877Z,2.73
2019-02-17T04:57:12.471Z,2.71
2019-02-17T04:57:13.080Z,2.63
2019-02-17T04:58:07.069Z,2.67
2019-02-17T04:58:07.648Z,2.66
2019-02-17T04:58:08.266Z,2.63
2019-02-17T04:58:08.861Z,2.70
2019-02-17T04:58:09.441Z,2.69
2019-02-17T04:58:10.041Z,2.70
2019-02-17T04:58:10.641Z,2.64
2019-02-17T04:59:29.202Z,2.67
2019-02-17T04:59:29.769Z,2.67
2019-02-17T04:59:30.372Z,2.70
2019-02-17T04:59:30.970Z,2.71
2019-02-17T04:59:31.569Z,2.69
2019-02-17T04:59:32.169Z,2.71
2019-02-17T04:59:32.766Z,2.69
2019-02-17T04:59:33.369Z,2.70
2019-02-17T04:59:33.976Z,2.69
2019-02-17T04:59:34.595Z,2.66
2019-02-17T04:59:35.175Z,2.71
2019-02-17T04:59:35.766Z,2.66
2019-02-17T04:59:36.364Z,2.67
2019-02-17T04:59:36.965Z,2.69
2019-02-17T04:59:37.565Z,2.69
2019-02-17T04:59:38.166Z,2.71
2019-02-17T05:01:03.299Z,2.71
2019-02-17T05:01:03.877Z,2.74
2019-02-17T05:01:04.475Z,2.64
2019-02-17T05:01:05.074Z,2.73
2019-02-17T05:01:05.673Z,2.70
2019-02-17T05:01:06.298Z,2.69
2019-02-17T05:01:06.880Z,2.71
2019-02-17T05:02:07.919Z,2.69
2019-02-17T05:02:08.492Z,2.74
2019-02-17T05:02:09.089Z,2.74
2019-02-17T05:02:09.689Z,2.73
2019-02-17T05:02:10.288Z,2.73
2019-02-17T05:02:10.887Z,2.67
2019-02-17T05:02:11.488Z,2.70
2019-02-17T05:02:12.089Z,2.71
2019-02-17T05:02:12.691Z,2.71
2019-02-17T05:02:13.292Z,2.70
2019-02-17T05:02:13.887Z,2.73
2019-02-17T05:02:14.488Z,2.70
2019-02-17T05:03:28.055Z,2.74
2019-02-17T05:03:28.618Z,2.76
2019-02-17T05:03:29.183Z,2.73
2019-02-17T05:03:29.766Z,2.74
2019-02-17T05:03:30.362Z,2.66
2019-02-17T05:03:30.965Z,2.74
2019-02-17T05:03:31.564Z,2.71
2019-02-17T05:03:32.191Z,2.73
2019-02-17T05:04:27.236Z,2.73
2019-02-17T05:04:27.808Z,2.71
2019-02-17T05:04:28.368Z,2.67
2019-02-17T05:04:28.957Z,2.70
2019-02-17T05:04:29.616Z,2.74
2019-02-17T05:04:30.153Z,2.74
2019-02-17T05:05:25.139Z,2.77
2019-02-17T05:05:25.715Z,2.71
2019-02-17T05:05:26.314Z,2.70
2019-02-17T05:05:26.913Z,2.76
2019-02-17T05:05:27.514Z,2.70
2019-02-17T05:05:28.114Z,2.70
2019-02-17T05:05:28.712Z,2.70
2019-02-17T05:05:29.312Z,2.69
2019-02-17T05:06:25.872Z,2.77
2019-02-17T05:06:26.440Z,2.76
2019-02-17T05:06:27.038Z,2.73
2019-02-17T05:08:01.629Z,2.81
2019-02-17T05:08:02.188Z,2.81
2019-02-17T05:08:02.781Z,2.79
2019-02-17T05:08:03.381Z,2.82
2019-02-17T05:08:03.982Z,2.85
2019-02-17T05:08:04.582Z,2.82
2019-02-17T05:09:01.104Z,2.73
2019-02-17T05:09:01.681Z,2.84
2019-02-17T05:09:02.280Z,2.82
2019-02-17T05:10:42.888Z,2.84
2019-02-17T05:10:43.468Z,2.81
2019-02-17T05:10:44.063Z,2.84
2019-02-17T05:10:44.663Z,2.81
2019-02-17T05:10:45.262Z,2.84
2019-02-17T05:10:46.812Z,2.82
2019-02-17T05:10:47.309Z,2.81
2019-02-17T05:10:47.908Z,2.84
2019-02-17T05:10:48.515Z,2.85
2019-02-17T05:10:49.114Z,2.79
2019-02-17T05:10:49.716Z,2.88
2019-02-17T05:10:50.306Z,2.84
2019-02-17T05:11:44.332Z,2.84
2019-02-17T05:11:44.905Z,2.84
2019-02-17T05:11:45.505Z,2.87
2019-02-17T05:11:46.107Z,2.77
2019-02-17T05:11:46.705Z,2.87
2019-02-17T05:11:47.304Z,2.89
2019-02-17T05:11:47.908Z,2.73
2019-02-17T05:11:48.506Z,2.81
2019-02-17T05:13:26.118Z,2.89
2019-02-17T05:13:26.697Z,2.81
2019-02-17T05:13:27.291Z,2.84
2019-02-17T05:13:27.891Z,2.82
2019-02-17T05:13:28.492Z,2.79
2019-02-17T05:13:29.091Z,2.85
2019-02-17T05:13:29.694Z,2.81
2019-02-17T05:13:30.292Z,2.77
2019-02-17T05:13:30.892Z,2.82
2019-02-17T05:13:31.491Z,2.91
2019-02-17T05:13:32.094Z,2.79
2019-02-17T05:13:32.689Z,2.82
2019-02-17T05:13:33.289Z,2.85
2019-02-17T05:13:33.889Z,2.92
2019-02-17T05:13:34.489Z,2.84
2019-02-17T05:13:35.088Z,2.91
2019-02-17T05:13:35.687Z,2.85
2019-02-17T05:13:36.293Z,2.88
2019-02-17T05:14:31.242Z,2.87
2019-02-17T05:14:31.821Z,2.79
2019-02-17T05:14:32.434Z,2.79
2019-02-17T05:14:33.035Z,2.87
2019-02-17T05:14:33.631Z,2.88
2019-02-17T05:14:34.234Z,2.87
2019-02-17T05:15:28.281Z,2.87
2019-02-17T05:15:28.857Z,2.92
2019-02-17T05:15:29.483Z,2.84
2019-02-17T05:15:30.057Z,2.84
2019-02-17T05:15:30.656Z,2.82
2019-02-17T05:15:31.331Z,2.84
2019-02-17T05:15:31.915Z,2.82
2019-02-17T05:15:32.488Z,2.77
2019-02-17T05:16:26.446Z,2.74
2019-02-17T05:16:27.023Z,2.84
2019-02-17T05:16:27.622Z,2.77
2019-02-17T05:16:28.221Z,2.79
2019-02-17T05:16:28.825Z,2.89
2019-02-17T05:16:29.417Z,2.76
2019-02-17T05:16:30.021Z,2.81
2019-02-17T05:17:31.059Z,2.88
2019-02-17T05:17:31.634Z,2.76
2019-02-17T05:17:32.233Z,2.87
2019-02-17T05:17:32.834Z,2.84
2019-02-17T05:17:33.449Z,2.85
2019-02-17T05:17:34.032Z,2.79
2019-02-17T05:17:34.636Z,2.74
2019-02-17T05:17:35.232Z,2.87
2019-02-17T05:17:35.831Z,2.79
2019-02-17T05:17:36.432Z,2.85
2019-02-17T05:17:37.033Z,2.88
2019-02-17T05:17:37.632Z,2.79
2019-02-17T05:19:06.701Z,2.88
2019-02-17T05:19:07.277Z,2.84
2019-02-17T05:19:07.885Z,2.82
2019-02-17T05:19:08.487Z,2.81
2019-02-17T05:19:09.074Z,2.84
2019-02-17T05:19:09.675Z,2.88
2019-02-17T05:19:10.289Z,2.84
2019-02-17T05:19:10.957Z,2.81
2019-02-17T05:19:12.161Z,2.77
2019-02-17T05:19:12.658Z,2.82
2019-02-17T05:19:13.256Z,2.84
2019-02-17T05:19:13.857Z,2.91
2019-02-17T05:19:14.460Z,2.82
2019-02-17T05:19:15.061Z,2.85
2019-02-17T05:19:15.657Z,2.97
2019-02-17T05:20:12.137Z,2.82
2019-02-17T05:20:12.724Z,2.81
2019-02-17T05:20:13.311Z,2.87
2019-02-17T05:20:13.910Z,2.81
2019-02-17T05:20:14.512Z,2.89
2019-02-17T05:20:15.112Z,2.81
2019-02-17T05:21:15.124Z,2.84
2019-02-17T05:21:15.687Z,2.92
2019-02-17T05:21:16.287Z,2.85
2019-02-17T05:21:16.888Z,2.82
2019-02-17T05:21:17.487Z,2.87
2019-02-17T05:21:18.092Z,2.81
2019-02-17T05:21:18.686Z,2.82
2019-02-17T05:21:19.430Z,2.87
2019-02-17T05:21:19.885Z,2.91
2019-02-17T05:21:20.483Z,2.82
2019-02-17T05:21:21.088Z,2.89
2019-02-17T05:21:21.684Z,2.79
2019-02-17T05:21:22.285Z,2.87
2019-02-17T05:21:22.884Z,2.85
2019-02-17T05:21:23.483Z,2.87
2019-02-17T05:21:24.087Z,2.87
2019-02-17T09:18:51.416Z,6.35
2019-02-17T09:18:51.984Z,6.35
2019-02-17T09:18:52.586Z,6.35
2019-02-17T09:18:53.183Z,6.40
2019-02-17T09:18:53.782Z,6.35
2019-02-17T09:18:54.385Z,6.35
2019-02-17T09:18:54.982Z,6.32
2019-02-17T09:18:55.585Z,6.33
2019-02-17T09:18:56.258Z,6.32
2019-02-17T09:18:56.811Z,6.40
2019-02-17T09:18:57.384Z,6.33
2019-02-17T09:18:57.983Z,6.33
2019-02-17T09:20:33.167Z,6.38
2019-02-17T09:20:33.730Z,6.46
2019-02-17T09:20:34.331Z,6.51
2019-02-17T09:20:34.938Z,6.44
2019-02-17T09:20:35.530Z,6.44
2019-02-17T09:20:36.130Z,6.50
2019-02-17T09:21:37.158Z,6.56
2019-02-17T09:21:37.731Z,6.59
2019-02-17T09:21:38.334Z,6.56
2019-02-17T09:21:38.932Z,6.56
2019-02-17T09:21:39.537Z,6.61
2019-02-17T09:21:40.210Z,6.53
2019-02-17T09:21:40.766Z,6.59
2019-02-17T09:21:41.330Z,6.61
2019-02-17T09:21:41.927Z,6.63
2019-02-17T09:21:42.527Z,6.54
2019-02-17T09:21:43.129Z,6.62
2019-02-17T09:21:43.725Z,6.59
2019-02-17T09:26:14.111Z,6.73
2019-02-17T09:28:23.038Z,6.89
2019-02-17T09:28:23.593Z,6.98
2019-02-17T09:28:24.138Z,6.90
2019-02-17T09:28:24.738Z,6.99
2019-02-17T09:28:25.335Z,6.84
2019-02-17T09:28:25.934Z,6.83
2019-02-17T09:28:26.534Z,6.84
2019-02-17T09:28:27.135Z,6.83
2019-02-17T09:28:27.733Z,6.98
2019-02-17T09:28:28.335Z,6.83
2019-02-17T09:28:28.934Z,6.86
2019-02-17T09:28:29.534Z,6.84
2019-02-17T09:28:30.133Z,6.91
2019-02-17T09:28:30.737Z,6.89
2019-02-17T09:28:31.335Z,6.89
2019-02-17T09:28:31.953Z,6.83
2019-02-17T09:32:35.846Z,7.16
2019-02-17T09:32:36.346Z,7.20
2019-02-17T09:32:36.946Z,7.09
2019-02-17T09:32:37.545Z,7.17
2019-02-17T09:32:38.146Z,7.23
2019-02-17T09:32:38.757Z,7.15
2019-02-17T09:32:39.344Z,7.20
2019-02-17T09:32:39.945Z,7.16
2019-02-17T09:32:40.543Z,7.19
2019-02-17T09:32:41.143Z,7.13
2019-02-17T09:38:43.570Z,7.52
2019-02-17T09:38:44.144Z,7.50
2019-02-17T09:38:44.742Z,7.49
2019-02-17T09:38:45.339Z,7.56
2019-02-17T09:38:45.940Z,7.50
2019-02-17T09:38:46.575Z,7.55
2019-02-17T09:38:47.253Z,7.50
2019-02-17T09:38:47.755Z,7.55
2019-02-17T09:38:48.336Z,7.52
2019-02-17T09:38:48.935Z,7.53
2019-02-17T09:38:49.536Z,7.58
2019-02-17T09:38:50.139Z,7.49
2019-02-17T09:48:41.647Z,8.08
2019-02-17T09:48:42.219Z,8.00
2019-02-17T09:48:42.820Z,7.99
2019-02-17T09:48:43.418Z,8.03
2019-02-17T09:48:44.020Z,7.99
2019-02-17T09:48:44.618Z,8.11
2019-02-17T09:48:45.220Z,7.99
2019-02-17T09:48:45.822Z,7.99
2019-02-17T09:48:46.418Z,8.08
2019-02-17T09:48:47.017Z,8.10
2019-02-17T09:48:47.618Z,8.02
2019-02-17T09:48:48.220Z,8.14
2019-02-17T09:48:48.821Z,8.11
2019-02-17T09:48:49.596Z,8.15
2019-02-17T09:48:50.016Z,8.11
2019-02-17T09:48:50.615Z,8.11
2019-02-17T09:48:51.217Z,8.11
2019-02-17T10:21:54.972Z,9.89
2019-02-17T10:21:55.470Z,9.83
2019-02-17T10:21:56.070Z,9.81
2019-02-17T10:21:56.671Z,9.86
2019-02-17T10:21:57.274Z,9.81
2019-02-17T10:21:57.873Z,9.82
2019-02-17T10:21:58.476Z,9.79
2019-02-17T10:21:59.192Z,9.86
2019-02-17T10:21:59.756Z,9.83
2019-02-17T10:22:00.269Z,9.79
2019-02-17T10:22:00.866Z,9.82
2019-02-17T10:22:01.468Z,9.82
2019-02-17T10:22:02.072Z,9.86
2019-02-17T10:22:02.666Z,9.89
2019-02-17T10:22:03.266Z,9.81
2019-02-17T10:22:57.960Z,9.83
2019-02-17T10:22:58.532Z,9.83
2019-02-17T10:22:59.147Z,9.88
2019-02-17T10:22:59.732Z,9.91
2019-02-17T10:23:00.355Z,9.83
2019-02-17T10:23:01.049Z,9.85
2019-02-17T10:23:01.530Z,9.88
2019-02-17T10:24:43.101Z,10.03
2019-02-17T10:24:43.585Z,10.00
2019-02-17T10:24:44.189Z,10.01
2019-02-17T10:24:44.777Z,10.04
2019-02-17T10:24:45.363Z,10.00
2019-02-17T10:24:45.962Z,9.99
2019-02-17T10:24:46.563Z,9.99
2019-02-17T10:24:47.165Z,9.99
2019-02-17T10:24:47.980Z,10.01
2019-02-17T10:24:48.362Z,10.01
2019-02-17T10:24:48.962Z,10.07
2019-02-17T10:24:49.563Z,9.99
2019-02-17T10:25:46.625Z,10.14
2019-02-17T10:25:47.186Z,10.07
2019-02-17T10:25:47.991Z,10.09
2019-02-17T11:35:12.607Z,12.33
2019-02-17T11:35:13.167Z,12.33
2019-02-17T11:35:13.764Z,12.45
2019-02-17T11:35:14.365Z,12.41
2019-02-17T11:35:14.964Z,12.39
2019-02-17T11:35:15.567Z,12.37
2019-02-17T11:35:16.168Z,12.33
2019-02-17T11:35:16.764Z,12.44
2019-02-17T11:35:17.365Z,12.38
2019-02-17T11:35:17.966Z,12.37
2019-02-17T11:35:18.571Z,12.33
2019-02-17T11:35:19.165Z,12.46
2019-02-17T11:36:36.377Z,12.38
2019-02-17T11:36:36.951Z,12.44
2019-02-17T11:38:59.251Z,12.42
2019-02-17T11:38:59.824Z,12.42
2019-02-17T11:39:00.422Z,12.42
2019-02-17T11:39:01.023Z,12.44
2019-02-17T11:39:02.274Z,12.44
2019-02-17T11:39:02.419Z,12.41
2019-02-17T11:39:02.821Z,12.42
2019-02-17T11:39:03.420Z,12.48
2019-02-17T11:39:04.021Z,12.44
2019-02-17T11:39:04.619Z,12.44
2019-02-17T11:39:05.222Z,12.42
2019-02-17T11:39:05.821Z,12.41
2019-02-17T11:40:08.427Z,12.52
2019-02-17T11:40:09.001Z,12.54
2019-02-17T11:40:09.599Z,12.54
2019-02-17T11:40:10.206Z,12.41
2019-02-17T11:40:10.801Z,12.54
2019-02-17T11:40:11.402Z,12.56
2019-02-17T11:40:11.999Z,12.51
2019-02-17T11:40:12.599Z,12.48
2019-02-17T11:40:13.200Z,12.51
2019-02-17T11:40:13.800Z,12.49
2019-02-17T11:40:14.398Z,12.54
2019-02-17T11:40:15.002Z,12.56
2019-02-17T11:41:08.536Z,12.51
2019-02-17T11:41:09.114Z,12.51
2019-02-17T11:41:09.708Z,12.51
2019-02-17T11:41:12.536Z,12.57
2019-02-17T11:41:12.544Z,12.56
2019-02-17T11:41:12.642Z,12.54
2019-02-17T11:41:12.747Z,12.52
2019-02-17T11:41:12.794Z,12.51
2019-02-17T11:42:06.189Z,12.52
2019-02-17T11:42:06.764Z,12.59
2019-02-17T11:42:07.361Z,12.59
2019-02-17T11:42:07.965Z,12.56
2019-02-17T11:42:08.561Z,12.59
2019-02-17T11:42:09.162Z,12.54
2019-02-17T11:42:09.762Z,12.56
2019-02-17T11:42:10.367Z,12.60
2019-02-17T12:36:30.680Z,13.56
2019-02-17T12:36:31.247Z,13.55
2019-02-17T12:36:31.850Z,13.56
2019-02-17T12:36:32.448Z,13.58
2019-02-17T12:36:33.075Z,13.62
2019-02-17T12:36:33.647Z,13.65
2019-02-17T12:36:34.249Z,13.62
2019-02-17T12:36:34.847Z,13.69
2019-02-17T12:36:35.446Z,13.55
2019-02-17T12:36:36.047Z,13.62
2019-02-17T12:36:36.646Z,13.67
2019-02-17T12:36:37.246Z,13.63
2019-02-17T12:38:06.884Z,13.65
2019-02-17T12:38:07.458Z,13.73
2019-02-17T12:38:08.057Z,13.67
2019-02-17T12:38:08.657Z,13.69
2019-02-17T12:38:09.255Z,13.65
2019-02-17T12:38:09.859Z,13.74
2019-02-17T12:38:10.458Z,13.69
2019-02-17T12:38:11.055Z,13.63
2019-02-17T12:38:11.656Z,13.62
2019-02-17T12:38:12.255Z,13.73
2019-02-17T12:38:12.854Z,13.69
2019-02-17T12:38:13.459Z,13.62
2019-02-17T12:38:14.063Z,13.65
2019-02-17T12:38:14.656Z,13.69
2019-02-17T12:38:15.271Z,13.65
2019-02-17T12:38:15.851Z,13.74
2019-02-17T12:39:15.065Z,13.76
2019-02-17T12:39:15.104Z,13.69
2019-02-17T12:39:15.187Z,13.74
2019-02-17T12:46:36.243Z,13.88
2019-02-17T12:46:36.753Z,13.91
2019-02-17T12:46:37.343Z,13.84
2019-02-17T12:46:37.947Z,13.77
2019-02-17T12:46:38.545Z,13.89
2019-02-17T12:46:39.143Z,13.91
2019-02-17T12:46:39.742Z,13.87
2019-02-17T12:46:40.341Z,13.89
2019-02-17T12:46:40.941Z,13.92
2019-02-17T12:48:49.274Z,13.92
2019-02-17T14:27:18.447Z,14.44
2019-02-17T14:27:19.019Z,14.50
2019-02-17T14:27:19.620Z,14.50
2019-02-17T14:27:20.216Z,14.44
2019-02-17T14:27:20.818Z,14.52
2019-02-17T14:27:21.415Z,14.49
2019-02-17T14:27:22.015Z,14.49
2019-02-17T14:27:22.684Z,14.44
2019-02-17T14:27:23.215Z,14.42
2019-02-17T14:27:23.820Z,14.42
2019-02-17T14:27:24.415Z,14.49
2019-02-17T14:27:25.016Z,14.43
2019-02-17T14:29:48.000Z,14.64
2019-02-17T14:29:48.466Z,14.50
2019-02-17T14:29:49.064Z,14.50
2019-02-17T14:29:49.665Z,14.53
2019-02-17T14:29:50.268Z,14.50
2019-02-17T14:29:50.865Z,14.49
2019-02-17T14:29:51.464Z,14.62
2019-02-17T14:29:52.065Z,14.49
2019-02-17T14:29:52.664Z,14.50
2019-02-17T14:29:53.268Z,14.57
2019-02-17T14:29:53.865Z,14.64
2019-02-17T14:29:54.487Z,14.56
2019-02-17T14:30:53.533Z,14.61
2019-02-17T14:30:54.109Z,14.61
2019-02-17T14:30:54.708Z,14.53
2019-02-17T14:30:55.310Z,14.54
2019-02-17T14:30:55.909Z,14.62
2019-02-17T14:30:56.513Z,14.57
2019-02-17T14:30:57.107Z,14.50
2019-02-17T14:30:57.725Z,14.65
2019-02-17T14:30:58.307Z,14.62
2019-02-17T14:30:58.909Z,14.62
2019-02-17T14:30:59.508Z,14.56
2019-02-17T14:31:00.106Z,14.56
2019-02-17T14:31:00.710Z,14.57
2019-02-17T14:31:01.306Z,14.60
2019-02-17T14:31:01.906Z,14.62
2019-02-17T14:31:02.505Z,14.56
2019-02-17T15:30:12.014Z,13.38
2019-02-17T15:30:12.580Z,13.36
2019-02-17T15:30:13.168Z,13.33
2019-02-17T15:30:13.767Z,13.41
2019-02-17T15:30:14.408Z,13.33
2019-02-17T15:30:14.970Z,13.41
2019-02-17T15:30:17.740Z,13.29
2019-02-17T15:30:17.937Z,13.32
2019-02-17T15:30:17.947Z,13.37
2019-02-17T15:30:18.084Z,13.38
2019-02-17T15:30:18.261Z,13.27
2019-02-17T15:30:18.568Z,13.32
2019-02-17T15:31:14.128Z,13.37
2019-02-17T15:31:14.697Z,13.30
2019-02-17T15:31:15.298Z,13.37
2019-02-17T15:31:15.896Z,13.37
2019-02-17T15:31:16.495Z,13.36
2019-02-17T15:31:17.098Z,13.36
2019-02-17T15:32:16.075Z,13.37
2019-02-17T15:32:16.709Z,13.36
2019-02-17T15:32:17.251Z,13.33
2019-02-17T15:32:17.852Z,13.30
2019-02-17T15:32:18.449Z,13.36
2019-02-17T15:32:19.050Z,13.33
2019-02-17T15:32:19.648Z,13.33
2019-02-17T15:32:20.250Z,13.36
2019-02-17T15:32:20.850Z,13.36
2019-02-17T15:32:21.452Z,13.33
2019-02-17T15:32:22.047Z,13.33
2019-02-17T15:32:22.649Z,13.30
2019-02-17T15:32:23.274Z,13.33
2019-02-17T15:32:23.881Z,13.33
2019-02-17T15:32:24.446Z,13.32
2019-02-17T15:32:25.045Z,13.37
2019-02-17T15:32:25.648Z,13.27
2019-02-17T15:33:27.158Z,13.30
2019-02-17T15:33:27.713Z,13.27
2019-02-17T15:33:28.314Z,13.32
2019-02-17T15:33:28.913Z,13.36
2019-02-17T15:33:29.514Z,13.29
2019-02-17T15:33:30.112Z,13.30
2019-02-17T15:33:30.718Z,13.29
2019-02-17T15:33:31.316Z,13.25
2019-02-17T15:33:31.914Z,13.24
2019-02-17T15:33:32.512Z,13.33
2019-02-17T15:33:33.113Z,13.27
2019-02-17T15:33:33.715Z,13.30
2019-02-17T15:34:27.251Z,13.29
2019-02-17T15:34:27.825Z,13.29
2019-02-17T15:34:28.426Z,13.25
2019-02-17T15:34:29.026Z,13.22
2019-02-17T15:34:29.625Z,13.20
2019-02-17T15:34:30.226Z,13.22
2019-02-17T15:34:30.824Z,13.27
2019-02-17T15:34:31.433Z,13.18
2019-02-17T15:35:25.934Z,13.29
2019-02-17T15:35:26.504Z,13.27
2019-02-17T15:35:27.103Z,13.22
2019-02-17T15:35:27.700Z,13.24
2019-02-17T15:35:28.300Z,13.21
2019-02-17T15:35:28.903Z,13.21
2019-02-17T15:35:29.501Z,13.27
2019-02-17T15:35:30.100Z,13.14
2019-02-17T15:36:34.127Z,13.21
2019-02-17T15:36:34.699Z,13.20
2019-02-17T15:36:35.300Z,13.18
2019-02-17T15:36:35.906Z,13.17
2019-02-17T15:36:36.499Z,13.21
2019-02-17T15:36:37.104Z,13.18
2019-02-17T15:36:37.699Z,13.12
2019-02-17T15:37:33.722Z,13.20
2019-02-17T15:37:34.297Z,13.18
2019-02-17T15:37:34.897Z,13.21
2019-02-17T15:37:35.498Z,13.18
2019-02-17T15:37:36.103Z,13.15
2019-02-17T15:37:36.696Z,13.18
2019-02-17T15:38:31.168Z,13.14
2019-02-17T15:38:31.746Z,13.24
2019-02-17T15:38:32.343Z,13.20
2019-02-17T15:38:32.943Z,13.18
2019-02-17T15:38:33.542Z,13.20
2019-02-17T15:38:34.142Z,13.17
2019-02-17T15:38:34.742Z,13.22
2019-02-17T15:50:33.702Z,12.87
2019-02-17T15:50:34.258Z,13.00
2019-02-17T15:50:34.857Z,12.93
2019-02-17T15:50:35.466Z,12.93
2019-02-17T15:50:36.056Z,12.85
2019-02-17T15:50:36.667Z,12.89
2019-02-17T15:50:37.253Z,12.84
2019-02-17T15:50:37.855Z,12.85
2019-02-17T15:50:38.454Z,12.92
2019-02-17T15:50:39.052Z,12.84
2019-02-17T15:50:39.653Z,12.88
2019-02-17T15:50:40.254Z,12.85
2019-02-17T15:56:13.237Z,12.69
2019-02-17T15:56:13.807Z,12.70
2019-02-17T15:56:14.405Z,12.67
2019-02-17T15:56:15.006Z,12.69
2019-02-17T15:56:15.609Z,12.70
2019-02-17T15:56:16.203Z,12.64
2019-02-17T15:56:16.803Z,12.64
2019-02-17T15:56:17.402Z,12.70
2019-02-17T15:56:18.002Z,12.69
2019-02-17T15:56:18.644Z,12.67
2019-02-17T15:56:19.201Z,12.69
2019-02-17T15:56:19.801Z,12.70
2019-02-17T15:58:05.406Z,12.60
2019-02-17T15:58:05.976Z,12.63
2019-02-17T15:58:06.575Z,12.67
2019-02-17T15:58:07.174Z,12.60
2019-02-17T15:58:07.774Z,12.63
2019-02-17T15:58:08.379Z,12.57
2019-02-17T16:17:53.534Z,11.27
2019-02-17T16:17:54.036Z,11.25
2019-02-17T16:18:49.058Z,11.25
2019-02-17T16:18:49.641Z,11.25
2019-02-17T16:18:50.230Z,11.20
2019-02-17T16:18:50.831Z,11.19
2019-02-17T16:18:51.430Z,11.21
2019-02-17T16:18:52.032Z,11.28
2019-02-17T16:22:10.887Z,10.91
2019-02-17T16:22:11.386Z,10.91
2019-02-17T16:22:11.986Z,10.91
2019-02-17T16:23:06.054Z,10.84
2019-02-17T16:23:06.565Z,10.83
2019-02-17T16:23:07.162Z,10.81
2019-02-17T16:23:07.757Z,10.89
2019-02-17T16:23:08.356Z,10.77
2019-02-17T16:23:08.955Z,10.77
2019-02-17T16:23:09.558Z,10.89
2019-02-17T16:24:38.146Z,10.66
2019-02-17T16:24:38.719Z,10.68
2019-02-17T16:24:39.318Z,10.70
2019-02-17T16:24:39.917Z,10.74
2019-02-17T16:24:40.516Z,10.76